Time;durP1;ratioP1;P1;durP2;ratioP2;P2;SDS_P1;SDS_P2;PMS_P1;PMS_P2;Temp;Humidity;BMP_temperature;BMP_pressure;BME280_temperature;BME280_humidity;BME280_pressure;Samples;Min_cycle;Max_cycle;Signal;HPM_P1;HPM_P2
2022/06/18 00:01:43;;;;;;;;;15.00;14.00;;;;;28.18;34.79;101463.91;5020431;28;45454;-52
2022/06/18 00:04:10;;;;;;;;;15.00;14.00;;;;;28.18;35.39;101461.22;5019915;28;45669;-52
2022/06/18 00:06:50;;;;;;;;;18.00;13.50;;;;;28.14;35.24;101457.03;5021153;28;45459;-52
2022/06/18 00:09:16;;;;;;;;;12.25;12.25;;;;;28.07;35.16;101446.84;5036099;28;45467;-51
2022/06/18 00:14:25;;;;;;;;;16.75;14.75;;;;;28.06;35.59;101454.06;5020907;28;45178;-50
2022/06/18 00:16:50;;;;;;;;;14.75;14.75;;;;;27.99;35.55;101445.56;5020871;28;45434;-52
2022/06/18 00:19:16;;;;;;;;;15.00;15.00;;;;;27.71;35.93;101401.78;5020758;28;45956;-51
2022/06/18 00:21:42;;;;;;;;;15.00;15.00;;;;;27.99;35.64;101448.25;5020910;28;45336;-50
2022/06/18 00:24:17;;;;;;;;;14.75;14.00;;;;;27.95;35.80;101448.59;5019298;28;45471;-53
2022/06/18 00:26:45;;;;;;;;;13.00;13.00;;;;;27.87;35.67;101439.28;5021023;28;45328;-53
2022/06/18 00:29:14;;;;;;;;;14.00;14.00;;;;;27.89;35.38;101444.53;5020332;28;45253;-50
2022/06/18 00:31:40;;;;;;;;;14.75;14.50;;;;;27.84;35.41;101436.78;5019209;28;46197;-51
2022/06/18 00:34:06;;;;;;;;;14.50;14.25;;;;;27.88;36.05;101440.97;5022549;28;46252;-50
2022/06/18 00:36:32;;;;;;;;;15.00;13.50;;;;;27.83;35.27;101440.47;5020799;28;45277;-51
2022/06/18 00:38:58;;;;;;;;;15.50;14.50;;;;;27.82;35.57;101440.59;5020551;28;45355;-51
2022/06/18 00:41:25;;;;;;;;;15.25;12.25;;;;;27.81;35.73;101439.75;5019226;28;45955;-49
2022/06/18 00:44:01;;;;;;;;;15.25;15.00;;;;;27.73;36.05;101431.34;5018959;28;45374;-51
2022/06/18 00:46:42;;;;;;;;;14.00;14.00;;;;;27.75;35.98;101445.59;5020390;28;45269;-51
2022/06/18 00:49:30;;;;;;;;;15.00;14.00;;;;;27.68;35.59;101444.34;5010494;28;45275;-52
2022/06/18 00:52:00;;;;;;;;;15.75;14.00;;;;;27.62;36.45;101439.41;5035381;28;45376;-51
2022/06/18 00:54:33;;;;;;;;;13.25;13.25;;;;;27.48;36.21;101419.72;5035237;28;45292;-51
2022/06/18 00:57:39;;;;;;;;;13.75;12.50;;;;;27.59;36.54;101453.16;5014862;28;45380;-49
2022/06/18 01:00:13;;;;;;;;;16.50;12.75;;;;;27.57;35.85;101443.31;5001290;28;45264;-51
2022/06/18 01:02:43;;;;;;;;;12.75;12.25;;;;;27.50;36.42;101431.25;5019869;28;46111;-53
2022/06/18 01:05:16;;;;;;;;;14.25;13.00;;;;;27.52;36.85;101453.59;5020033;28;45325;-50
2022/06/18 01:07:42;;;;;;;;;12.75;11.25;;;;;27.48;36.31;101448.53;5020235;28;45399;-49
2022/06/18 01:10:17;;;;;;;;;12.50;10.25;;;;;27.41;36.75;101437.34;5035461;28;45329;-53
2022/06/18 01:12:43;;;;;;;;;10.50;10.50;;;;;27.37;36.68;101442.09;5018442;28;45410;-51
2022/06/18 01:15:11;;;;;;;;;13.00;12.00;;;;;27.38;37.29;101440.25;5020084;28;45339;-52
2022/06/18 01:17:40;;;;;;;;;12.25;11.00;;;;;27.34;37.35;101441.44;5018687;28;45255;-52
2022/06/18 01:20:09;;;;;;;;;11.25;10.50;;;;;27.31;36.81;101442.53;5020240;28;45456;-51
2022/06/18 01:22:44;;;;;;;;;16.50;12.50;;;;;27.26;37.31;101447.41;5019624;28;45344;-50
2022/06/18 01:25:11;;;;;;;;;14.50;14.50;;;;;27.22;37.58;101438.69;5019980;28;45392;-52
2022/06/18 01:27:38;;;;;;;;;14.75;11.75;;;;;27.21;37.23;101442.34;5018365;28;45194;-54
2022/06/18 01:30:06;;;;;;;;;10.00;10.00;;;;;27.14;37.56;101435.69;5019917;28;45248;-49
2022/06/18 01:32:31;;;;;;;;;12.25;12.25;;;;;27.13;37.86;101431.28;5015997;28;46222;-52
2022/06/18 01:34:57;;;;;;;;;10.50;10.50;;;;;27.09;38.20;101436.03;5010009;28;45405;-51
2022/06/18 01:37:22;;;;;;;;;10.50;9.50;;;;;27.09;37.80;101435.16;5035219;28;45472;-52
2022/06/18 01:39:48;;;;;;;;;13.00;10.50;;;;;27.05;38.17;101434.53;5020007;28;45295;-49
2022/06/18 01:42:26;;;;;;;;;11.50;11.50;;;;;27.04;38.34;101437.34;5019426;28;45478;-52
2022/06/18 01:45:12;;;;;;;;;12.00;10.25;;;;;27.07;38.21;101437.13;5034995;28;46072;-52
2022/06/18 01:47:43;;;;;;;;;12.50;11.75;;;;;27.04;38.52;101437.34;5013896;28;45241;-53
2022/06/18 01:50:16;;;;;;;;;15.75;13.25;;;;;27.02;38.38;101439.28;5019513;28;45367;-50
2022/06/18 01:52:47;;;;;;;;;11.25;11.25;;;;;26.98;38.21;101424.31;5019491;28;45430;-53
2022/06/18 01:55:24;;;;;;;;;11.50;10.75;;;;;26.98;38.23;101429.69;5018215;28;46030;-51
2022/06/18 01:57:54;;;;;;;;;10.75;10.00;;;;;26.98;37.82;101437.78;5014707;28;45305;-49
2022/06/18 02:00:25;;;;;;;;;13.75;11.75;;;;;26.96;38.45;101434.38;5020570;28;45265;-49
2022/06/18 02:02:51;;;;;;;;;12.25;12.00;;;;;26.92;37.55;101425.63;5022591;28;46097;-50
2022/06/18 02:05:18;;;;;;;;;11.00;10.00;;;;;26.90;38.12;101425.72;5022961;28;45403;-50
2022/06/18 02:07:45;;;;;;;;;9.50;8.75;;;;;26.88;37.47;101422.28;5022899;28;45329;-50
2022/06/18 02:10:36;;;;;;;;;12.75;12.00;;;;;26.85;37.60;101414.41;5023047;28;45529;-50
2022/06/18 02:13:03;;;;;;;;;11.00;11.00;;;;;26.81;37.82;101412.06;5037597;28;46855;-52
2022/06/18 02:15:34;;;;;;;;;9.50;9.50;;;;;26.80;38.10;101410.34;5021655;28;45420;-52
2022/06/18 02:18:05;;;;;;;;;10.75;10.75;;;;;26.75;37.78;101397.19;5022603;28;45182;-52
2022/06/18 02:20:34;;;;;;;;;11.00;10.00;;;;;26.76;37.71;101407.00;5022690;28;45258;-51
2022/06/18 02:23:00;;;;;;;;;11.00;11.00;;;;;26.75;37.60;101398.06;5021361;28;46981;-51
2022/06/18 02:25:28;;;;;;;;;12.50;10.75;;;;;26.71;37.99;101401.91;5022623;28;45399;-50
2022/06/18 02:28:03;;;;;;;;;12.00;11.00;;;;;26.68;38.53;101394.06;5038157;28;45321;-52
2022/06/18 02:30:34;;;;;;;;;10.75;10.25;;;;;26.65;38.47;101396.09;5022268;28;45392;-52
2022/06/18 02:33:06;;;;;;;;;12.50;12.25;;;;;26.60;38.83;101393.72;5015247;28;46147;-49
2022/06/18 02:35:32;;;;;;;;;10.75;10.25;;;;;26.55;38.51;101388.69;5017143;28;45244;-50
2022/06/18 02:37:58;;;;;;;;;11.50;11.00;;;;;26.53;39.06;101387.94;5022867;28;45255;-48
2022/06/18 02:40:26;;;;;;;;;14.75;13.25;;;;;26.51;38.46;101391.72;5020968;28;45669;-52
2022/06/18 02:42:54;;;;;;;;;10.50;10.50;;;;;26.44;39.11;101373.28;5037492;28;48284;-52
2022/06/18 02:45:21;;;;;;;;;11.25;10.75;;;;;26.40;39.20;101377.19;5037527;28;45628;-50
2022/06/18 02:47:48;;;;;;;;;11.75;11.00;;;;;26.32;39.12;101363.38;5022287;28;45287;-53
2022/06/18 02:50:15;;;;;;;;;11.00;11.00;;;;;26.34;39.26;101374.91;5018988;28;45447;-52
2022/06/18 02:52:49;;;;;;;;;10.25;10.25;;;;;26.31;39.48;101372.44;5020547;28;46510;-51
2022/06/18 02:55:30;;;;;;;;;10.50;10.50;;;;;26.27;39.60;101363.69;5022159;28;45228;-50
2022/06/18 02:58:04;;;;;;;;;13.25;13.25;;;;;26.22;40.06;101362.31;5017796;28;45224;-51
2022/06/18 03:00:31;;;;;;;;;12.25;12.25;;;;;26.19;39.84;101362.53;5009677;28;45363;-51
2022/06/18 03:02:56;;;;;;;;;12.50;11.50;;;;;26.16;40.30;101360.91;5021588;28;45655;-52
2022/06/18 03:05:27;;;;;;;;;10.25;10.25;;;;;26.13;39.67;101355.75;5037442;28;45368;-49
2022/06/18 03:07:53;;;;;;;;;11.50;11.00;;;;;26.06;40.27;101352.63;5022243;28;45276;-52
2022/06/18 03:13:03;;;;;;;;;10.25;10.00;;;;;26.00;40.29;101339.56;5020381;28;45303;-53
2022/06/18 03:15:30;;;;;;;;;10.25;10.25;;;;;26.00;40.18;101341.38;5021889;28;45288;-50
2022/06/18 03:17:57;;;;;;;;;12.25;11.25;;;;;25.93;40.24;101332.88;5020451;28;45313;-50
2022/06/18 03:20:34;;;;;;;;;13.00;12.25;;;;;25.90;40.53;101331.28;5021804;28;45460;-51
2022/06/18 03:22:59;;;;;;;;;10.75;9.25;;;;;25.88;39.98;101335.88;5008777;28;46225;-49
2022/06/18 03:25:24;;;;;;;;;11.00;10.00;;;;;25.84;40.58;101329.00;5036909;28;49444;-53
2022/06/18 03:27:50;;;;;;;;;11.50;11.00;;;;;25.83;40.87;101332.66;5008913;28;45312;-52
2022/06/18 03:30:16;;;;;;;;;9.25;9.25;;;;;25.78;40.91;101324.03;5021976;28;45288;-53
2022/06/18 03:32:41;;;;;;;;;11.25;11.25;;;;;25.76;40.99;101326.84;5016807;28;45424;-51
2022/06/18 03:35:07;;;;;;;;;12.75;11.00;;;;;25.70;40.83;101319.19;5012928;28;45473;-51
2022/06/18 03:37:32;;;;;;;;;10.25;10.25;;;;;25.67;40.96;101321.25;5036949;28;45282;-48
2022/06/18 03:39:58;;;;;;;;;11.25;11.25;;;;;25.67;41.13;101322.09;5021686;28;45348;-50
2022/06/18 03:42:23;;;;;;;;;10.75;10.75;;;;;25.58;41.26;101314.66;5019908;28;48276;-51
2022/06/18 03:44:48;;;;;;;;;10.50;10.50;;;;;25.56;41.46;101317.47;5021745;28;45275;-52
2022/06/18 03:47:14;;;;;;;;;9.75;8.25;;;;;25.52;41.56;101321.34;5019540;28;45518;-50
2022/06/18 03:49:39;;;;;;;;;10.00;10.00;;;;;25.47;41.04;101308.19;5036829;28;45502;-50
2022/06/18 03:52:07;;;;;;;;;12.00;10.75;;;;;25.47;41.08;101321.66;5021276;28;46498;-50
2022/06/18 03:54:33;;;;;;;;;13.00;12.00;;;;;25.43;41.62;101317.44;5021396;28;45162;-53
2022/06/18 03:57:00;;;;;;;;;13.00;13.00;;;;;25.41;41.80;101308.63;5016306;28;45273;-51
2022/06/18 03:59:26;;;;;;;;;11.75;11.75;;;;;25.39;41.58;101312.38;5021252;28;45395;-53
2022/06/18 04:01:51;;;;;;;;;10.75;10.75;;;;;25.37;41.59;101311.59;5020636;28;45417;-51
2022/06/18 04:04:17;;;;;;;;;12.50;10.50;;;;;25.35;41.75;101311.69;5021238;28;45291;-51
2022/06/18 04:06:43;;;;;;;;;11.50;11.50;;;;;25.32;41.92;101314.59;5021158;28;45530;-52
2022/06/18 04:09:09;;;;;;;;;10.00;10.00;;;;;25.27;41.78;101317.59;5021315;28;45344;-52
2022/06/18 04:11:35;;;;;;;;;8.75;8.75;;;;;25.23;41.81;101305.31;5020599;28;45286;-48
2022/06/18 04:14:02;;;;;;;;;9.75;9.75;;;;;25.26;41.92;101313.16;5019809;28;45290;-51
2022/06/18 04:16:28;;;;;;;;;11.00;11.00;;;;;25.20;41.51;101305.50;5020998;28;45225;-48
2022/06/18 04:18:53;;;;;;;;;12.75;11.00;;;;;25.24;41.67;101312.41;5020834;28;45172;-52
2022/06/18 04:21:19;;;;;;;;;10.00;9.50;;;;;25.24;42.09;101309.72;5020866;28;45313;-51
2022/06/18 04:23:44;;;;;;;;;9.50;9.50;;;;;25.24;42.25;101303.47;5020429;28;45304;-53
2022/06/18 04:26:12;;;;;;;;;10.25;10.25;;;;;25.20;42.09;101301.97;5019731;28;45258;-52
2022/06/18 04:28:38;;;;;;;;;12.00;12.00;;;;;25.20;41.99;101301.97;5020754;28;45357;-52
2022/06/18 04:31:04;;;;;;;;;12.00;12.00;;;;;25.24;42.04;101306.16;5020400;28;45438;-53
2022/06/18 04:33:30;;;;;;;;;9.75;9.50;;;;;25.23;42.51;101296.38;5009574;28;45349;-52
2022/06/18 04:35:58;;;;;;;;;10.25;10.25;;;;;25.25;42.20;101291.75;5018758;28;45238;-51
2022/06/18 04:38:25;;;;;;;;;11.75;10.50;;;;;25.25;42.06;101294.47;5020747;28;45237;-53
2022/06/18 04:40:51;;;;;;;;;11.50;11.00;;;;;25.26;41.98;101283.59;5020329;28;45433;-54
2022/06/18 04:43:17;;;;;;;;;11.25;10.75;;;;;25.22;41.86;101286.56;5020345;28;45318;-53
2022/06/18 04:45:43;;;;;;;;;12.00;10.75;;;;;25.22;41.97;101284.78;5035690;28;45428;-50
2022/06/18 04:48:08;;;;;;;;;10.25;10.25;;;;;25.26;42.24;101290.81;5020228;28;45359;-53
2022/06/18 04:50:37;;;;;;;;;10.25;10.25;;;;;25.25;41.79;101287.22;5019072;28;48293;-50
2022/06/18 04:53:04;;;;;;;;;11.75;11.75;;;;;25.28;42.42;101296.91;5019192;28;45347;-52
2022/06/18 04:55:29;;;;;;;;;9.75;9.75;;;;;25.28;42.01;101295.13;5020358;28;45149;-53
2022/06/18 04:57:55;;;;;;;;;13.50;13.25;;;;;25.28;42.27;101297.81;5015399;28;45139;-53
2022/06/18 05:00:21;;;;;;;;;13.00;13.00;;;;;25.26;42.29;101299.72;5019134;28;45376;-51
2022/06/18 05:02:46;;;;;;;;;9.25;9.25;;;;;25.33;41.88;101308.22;5034989;28;45399;-52
2022/06/18 05:05:18;;;;;;;;;12.25;11.25;;;;;25.35;42.22;101311.69;5020561;28;45458;-50
2022/06/18 05:07:44;;;;;;;;;12.75;12.25;;;;;25.37;42.01;101311.59;5020179;28;45240;-52
2022/06/18 05:10:10;;;;;;;;;12.00;12.00;;;;;25.39;41.84;101313.22;5020438;28;45303;-52
2022/06/18 05:12:36;;;;;;;;;11.50;9.75;;;;;25.41;41.83;101305.06;5019749;28;45332;-53
2022/06/18 05:15:02;;;;;;;;;8.50;8.50;;;;;25.45;42.25;101303.88;5020568;28;45387;-52
2022/06/18 05:17:31;;;;;;;;;12.00;9.25;;;;;25.46;41.95;101302.94;5035073;28;45285;-52
2022/06/18 05:19:56;;;;;;;;;12.00;11.75;;;;;25.51;42.02;101303.47;5020100;28;45316;-52
2022/06/18 05:22:22;;;;;;;;;10.50;10.50;;;;;25.54;42.18;101297.00;5019727;28;45175;-52
2022/06/18 05:24:48;;;;;;;;;12.25;11.50;;;;;25.55;41.76;101302.28;5020359;28;45269;-50
2022/06/18 05:27:25;;;;;;;;;14.00;11.00;;;;;25.58;42.04;101302.06;5019647;28;45233;-53
2022/06/18 05:29:50;;;;;;;;;8.00;8.00;;;;;25.64;42.05;101306.16;5019975;28;46416;-53
2022/06/18 05:32:16;;;;;;;;;10.50;9.25;;;;;25.67;41.84;101305.09;5018387;28;45343;-52
2022/06/18 05:34:41;;;;;;;;;10.00;10.00;;;;;25.70;42.07;101302.19;5007051;28;45433;-53
2022/06/18 05:37:27;;;;;;;;;9.50;7.00;;;;;25.74;41.85;101296.47;5019789;28;45268;-49
2022/06/18 05:39:52;;;;;;;;;10.75;9.25;;;;;25.76;41.92;101288.28;5035034;28;46968;-52
2022/06/18 05:42:18;;;;;;;;;11.50;9.50;;;;;25.77;41.97;101285.53;5019387;28;45261;-50
2022/06/18 05:44:43;;;;;;;;;10.00;10.00;;;;;25.81;41.43;101291.56;5035342;28;45456;-53
2022/06/18 05:47:22;;;;;;;;;11.75;10.75;;;;;25.83;41.60;101292.28;5034656;28;45503;-52
2022/06/18 05:49:49;;;;;;;;;10.25;10.25;;;;;25.83;41.40;101286.91;5019612;28;45439;-50
2022/06/18 05:52:14;;;;;;;;;8.50;8.50;;;;;25.84;41.16;101285.09;5019448;28;45429;-53
2022/06/18 05:54:40;;;;;;;;;12.00;10.25;;;;;25.83;41.59;101277.97;5019823;28;45545;-50
2022/06/18 05:57:06;;;;;;;;;11.25;10.75;;;;;25.88;41.20;101283.91;5014722;28;45525;-52
2022/06/18 05:59:32;;;;;;;;;10.00;8.00;;;;;25.89;41.72;101273.00;5019548;28;45832;-51
2022/06/18 06:01:57;;;;;;;;;13.50;13.50;;;;;25.93;41.56;101268.28;5019233;28;45249;-54
2022/06/18 06:04:24;;;;;;;;;13.50;11.25;;;;;25.97;41.22;101277.84;5019491;28;45249;-53
2022/06/18 06:06:51;;;;;;;;;10.25;9.25;;;;;26.01;41.33;101281.19;5019652;28;45554;-54
2022/06/18 06:11:28;;;;;;;;;10.75;9.75;;;;;26.04;41.30;101270.22;5019310;28;46043;-51
2022/06/18 06:12:04;;;;;;;;;11.00;9.25;;;;;26.10;40.40;101270.66;5019033;28;45401;-49
2022/06/18 06:14:30;;;;;;;;;10.75;10.00;;;;;26.13;40.41;101264.19;5019261;28;45221;-49
2022/06/18 06:16:57;;;;;;;;;11.50;11.50;;;;;26.18;40.36;101261.19;5019353;28;45212;-50
2022/06/18 06:19:22;;;;;;;;;9.75;9.00;;;;;26.22;40.84;101266.22;5019180;28;45474;-49
2022/06/18 06:21:47;;;;;;;;;10.00;9.25;;;;;26.25;40.91;101266.00;5019241;28;45338;-52
2022/06/18 06:24:13;;;;;;;;;9.00;8.00;;;;;26.31;40.22;101262.00;5017908;28;45483;-49
2022/06/18 06:26:38;;;;;;;;;10.50;10.50;;;;;26.37;40.44;101264.22;5017843;28;45453;-53
2022/06/18 06:29:04;;;;;;;;;10.50;9.50;;;;;26.38;40.25;101255.19;5034327;28;46965;-53
2022/06/18 06:31:29;;;;;;;;;11.00;10.00;;;;;26.43;40.12;101249.47;5034271;28;45368;-53
2022/06/18 06:33:54;;;;;;;;;11.50;10.00;;;;;26.45;39.82;101250.19;5005798;28;45289;-50
2022/06/18 06:36:20;;;;;;;;;13.75;11.00;;;;;26.51;40.29;101254.28;5019334;28;45327;-54
2022/06/18 06:38:45;;;;;;;;;8.25;8.25;;;;;26.54;39.94;101246.84;5018837;28;45664;-52
2022/06/18 06:41:19;;;;;;;;;10.00;10.00;;;;;26.63;39.50;101245.31;5034432;28;45274;-51
2022/06/18 06:43:47;;;;;;;;;10.25;9.50;;;;;26.68;39.15;101248.50;5018933;28;45324;-54
2022/06/18 06:46:13;;;;;;;;;11.00;11.00;;;;;26.74;39.68;101258.00;5019871;28;45221;-52
2022/06/18 06:48:39;;;;;;;;;12.00;12.00;;;;;26.80;38.93;101254.00;5020813;28;47169;-48
2022/06/18 06:51:12;;;;;;;;;8.00;8.00;;;;;26.85;38.90;101251.81;5022220;28;45168;-54
2022/06/18 06:53:37;;;;;;;;;14.25;11.50;;;;;26.82;38.96;101241.25;5037746;28;45225;-50
2022/06/18 06:58:47;;;;;;;;;13.50;12.00;;;;;27.04;39.38;101257.53;5021777;28;45738;-53
2022/06/18 07:01:12;;;;;;;;;9.50;9.50;;;;;27.11;38.86;101260.63;5021721;28;45178;-54
2022/06/18 07:03:38;;;;;;;;;9.50;9.50;;;;;27.09;38.42;101252.66;5009296;28;45353;-51
2022/06/18 07:06:03;;;;;;;;;12.50;11.75;;;;;27.20;39.17;101261.75;5022199;28;45454;-49
2022/06/18 07:08:29;;;;;;;;;13.75;11.25;;;;;27.27;38.60;101270.22;5009188;28;46114;-50
2022/06/18 07:10:55;;;;;;;;;12.25;11.75;;;;;27.34;38.99;101269.63;5022005;28;45200;-51
2022/06/18 07:13:21;;;;;;;;;11.75;11.75;;;;;27.41;39.12;101264.66;5020610;28;45340;-49
2022/06/18 07:15:48;;;;;;;;;14.00;10.00;;;;;27.47;38.50;101258.81;5037144;28;45598;-51
2022/06/18 07:18:18;;;;;;;;;11.00;11.00;;;;;27.56;38.63;101265.31;5022014;28;45283;-51
2022/06/18 07:20:44;;;;;;;;;14.00;10.50;;;;;27.63;38.49;101271.94;5021715;28;45228;-53
2022/06/18 07:23:10;;;;;;;;;15.00;9.50;;;;;27.69;38.34;101270.59;5022090;28;45279;-52
2022/06/18 07:25:35;;;;;;;;;12.75;10.50;;;;;27.76;38.40;101271.84;5021831;28;45435;-51
2022/06/18 07:28:00;;;;;;;;;10.00;10.00;;;;;27.85;37.82;101271.09;5021698;28;46739;-49
2022/06/18 07:30:26;;;;;;;;;11.25;10.50;;;;;27.89;38.03;101275.28;5020255;28;45389;-52
2022/06/18 07:32:52;;;;;;;;;11.75;11.50;;;;;27.93;38.17;101264.25;5015568;28;45330;-51
2022/06/18 07:35:24;;;;;;;;;15.00;11.75;;;;;28.01;37.58;101265.34;5014607;28;45327;-50
2022/06/18 07:37:50;;;;;;;;;13.75;13.00;;;;;28.06;37.77;101265.00;5001573;28;45451;-53
2022/06/18 07:40:16;;;;;;;;;9.25;8.75;;;;;28.13;37.70;101260.81;5015176;28;45166;-53
2022/06/18 07:42:43;;;;;;;;;12.75;12.00;;;;;28.19;37.22;101254.94;5021529;28;45347;-52
2022/06/18 07:45:14;;;;;;;;;10.50;10.50;;;;;28.28;37.77;101249.78;5021422;28;45470;-50
2022/06/18 07:47:39;;;;;;;;;9.75;9.75;;;;;28.32;37.49;101251.22;5021286;28;46079;-52
2022/06/18 07:50:05;;;;;;;;;13.25;13.25;;;;;28.40;37.57;101237.94;5019526;28;50441;-54
2022/06/18 07:52:31;;;;;;;;;13.00;13.00;;;;;28.46;37.01;101242.84;5020254;28;45379;-51
2022/06/18 07:54:56;;;;;;;;;14.25;12.50;;;;;28.56;37.02;101231.28;5021227;28;45394;-53
2022/06/18 07:57:21;;;;;;;;;10.75;10.75;;;;;28.62;36.93;101230.78;5015847;28;46985;-52
2022/06/18 07:59:47;;;;;;;;;10.75;10.75;;;;;28.70;36.89;101237.28;5020932;28;45322;-53
2022/06/18 08:02:12;;;;;;;;;11.25;10.75;;;;;28.80;37.26;101234.66;5021194;28;45298;-51
2022/06/18 08:04:37;;;;;;;;;15.00;15.00;;;;;28.86;36.55;101227.88;5021144;28;45255;-53
2022/06/18 08:07:03;;;;;;;;;12.25;12.00;;;;;28.98;36.68;101231.38;5019927;28;45926;-51
2022/06/18 08:09:28;;;;;;;;;13.00;13.00;;;;;29.05;36.64;101231.72;5019682;28;45527;-51
2022/06/18 08:11:54;;;;;;;;;10.50;10.25;;;;;29.13;36.66;101232.78;5021075;28;45749;-51
2022/06/18 08:14:19;;;;;;;;;12.75;12.00;;;;;29.20;36.37;101227.72;5036383;28;45280;-54
2022/06/18 08:16:45;;;;;;;;;15.25;12.75;;;;;29.22;36.24;101231.16;5020844;28;45438;-48
2022/06/18 08:19:12;;;;;;;;;15.25;14.75;;;;;29.27;36.63;101226.19;5021161;28;45312;-50
2022/06/18 08:21:41;;;;;;;;;13.50;12.00;;;;;29.34;36.24;101219.28;5021188;28;45292;-49
2022/06/18 08:24:27;;;;;;;;;13.50;13.50;;;;;29.41;36.01;101216.91;5020629;28;45346;-49
2022/06/18 08:26:53;;;;;;;;;15.25;14.75;;;;;29.51;35.46;101212.41;5018533;28;48385;-50
2022/06/18 08:29:21;;;;;;;;;13.50;13.50;;;;;29.61;35.69;101209.75;5020657;28;45313;-51
2022/06/18 08:31:46;;;;;;;;;17.25;14.50;;;;;29.72;35.51;101200.66;5020710;28;45229;-48
2022/06/18 08:34:12;;;;;;;;;13.25;13.00;;;;;29.79;35.01;101206.41;5007156;28;45525;-53
2022/06/18 08:36:40;;;;;;;;;13.00;13.00;;;;;29.86;35.13;101201.28;5019416;28;47849;-49
2022/06/18 08:39:06;;;;;;;;;13.00;13.00;;;;;29.96;34.50;101194.09;5020531;28;45190;-50
2022/06/18 08:41:37;;;;;;;;;13.00;12.00;;;;;30.06;34.36;101199.53;5020529;28;45461;-51
2022/06/18 08:44:21;;;;;;;;;13.75;13.75;;;;;30.13;34.54;101203.41;5020259;28;45185;-53
2022/06/18 08:46:52;;;;;;;;;14.25;13.25;;;;;30.20;34.17;101195.56;5020027;28;45546;-52
2022/06/18 08:49:20;;;;;;;;;12.00;12.00;;;;;30.24;34.14;101195.16;5035619;28;46132;-51
2022/06/18 08:52:12;;;;;;;;;13.50;13.00;;;;;30.09;33.36;101142.38;5020315;28;45303;-51
2022/06/18 08:54:40;;;;;;;;;15.50;14.75;;;;;30.45;33.57;101189.63;5020386;28;45401;-52
2022/06/18 08:57:28;;;;;;;;;15.00;13.50;;;;;30.48;33.11;101177.69;5014612;28;45507;-52
2022/06/18 09:00:14;;;;;;;;;16.00;15.00;;;;;30.61;33.19;101193.66;5018755;28;45207;-49
2022/06/18 09:02:50;;;;;;;;;14.50;14.50;;;;;30.61;32.86;101164.69;5020239;28;45262;-49
2022/06/18 09:05:54;;;;;;;;;14.00;14.00;;;;;30.83;32.45;101173.56;5035563;28;45502;-50
2022/06/18 09:08:41;;;;;;;;;15.00;15.00;;;;;30.96;32.64;101162.38;5019300;28;45259;-52
2022/06/18 09:11:12;;;;;;;;;18.25;16.75;;;;;31.10;32.46;101159.22;5019898;28;45417;-50
2022/06/18 09:13:57;;;;;;;;;12.50;12.50;;;;;31.00;31.39;101119.53;5020061;28;45236;-52
2022/06/18 09:16:31;;;;;;;;;15.00;15.00;;;;;31.15;31.84;101122.69;5019866;28;45350;-50
2022/06/18 09:19:00;;;;;;;;;14.75;13.00;;;;;31.43;31.24;101148.88;5018568;28;47382;-52
2022/06/18 09:21:41;;;;;;;;;14.50;14.50;;;;;31.48;30.49;101136.69;5018402;28;45948;-48
2022/06/18 09:24:13;;;;;;;;;15.50;15.50;;;;;31.42;30.43;101111.00;5020001;28;45327;-49
2022/06/18 09:26:42;;;;;;;;;17.00;16.50;;;;;31.72;30.51;101145.22;5019961;28;45374;-50
2022/06/18 09:29:22;;;;;;;;;14.25;14.00;;;;;31.81;29.99;101127.16;5019690;28;45428;-52
2022/06/18 09:32:00;;;;;;;;;13.00;13.00;;;;;32.04;29.74;101141.13;5019824;28;45426;-50
2022/06/18 09:34:40;;;;;;;;;12.75;12.75;;;;;32.09;29.30;101111.63;5019733;28;45455;-52
2022/06/18 09:37:13;;;;;;;;;14.75;14.00;;;;;32.36;28.87;101130.78;5019939;28;45638;-50
2022/06/18 09:39:43;;;;;;;;;15.25;14.50;;;;;32.41;29.00;101117.56;5019929;28;45519;-50
2022/06/18 09:42:13;;;;;;;;;12.00;12.00;;;;;32.51;28.36;101106.63;5019496;28;45434;-53
2022/06/18 09:45:00;;;;;;;;;15.25;13.00;;;;;32.66;27.43;101110.47;5019970;28;45489;-50
2022/06/18 09:47:39;;;;;;;;;11.25;11.25;;;;;32.92;28.06;101133.31;5019410;28;45240;-52
2022/06/18 09:50:25;;;;;;;;;12.25;12.25;;;;;32.79;27.49;101076.59;5015832;28;45486;-52
2022/06/18 09:53:02;;;;;;;;;12.00;12.00;;;;;33.11;27.89;101113.19;5019728;28;45433;-53
2022/06/18 09:55:41;;;;;;;;;12.25;12.25;;;;;33.05;27.61;101090.19;5019767;28;45408;-50
2022/06/18 09:58:15;;;;;;;;;12.00;12.00;;;;;33.25;27.38;101093.53;5034525;28;45419;-53
2022/06/18 10:00:43;;;;;;;;;14.75;13.50;;;;;33.36;27.34;101082.38;5019443;28;45625;-52
2022/06/18 10:08:53;;;;;;;;;9.25;9.25;;;;;34.06;25.87;101101.34;5019558;28;45216;-53
2022/06/18 10:11:21;;;;;;;;;10.25;10.25;;;;;33.98;25.53;101064.88;5018835;28;45444;-52
2022/06/18 10:13:59;;;;;;;;;11.75;10.75;;;;;34.42;25.16;101098.38;5019448;28;45276;-53
2022/06/18 10:16:33;;;;;;;;;11.00;11.00;;;;;34.61;24.27;101097.16;5019307;28;45431;-52
2022/06/18 10:19:27;;;;;;;;;10.00;10.00;;;;;34.71;24.79;101094.25;5019310;28;45455;-52
2022/06/18 10:22:07;;;;;;;;;10.25;10.25;;;;;34.88;24.21;101087.78;5021311;28;45437;-53
2022/06/18 10:24:55;;;;;;;;;11.00;9.50;;;;;34.90;23.89;101055.69;5022768;28;45421;-53
2022/06/18 10:27:43;;;;;;;;;8.50;8.25;;;;;35.02;24.23;101039.81;5037886;28;45270;-50
2022/06/18 10:30:24;;;;;;;;;11.25;10.75;;;;;35.31;23.65;101058.28;5038035;28;45619;-52
2022/06/18 10:33:01;;;;;;;;;12.25;12.25;;;;;35.62;23.77;101057.47;5021001;28;46310;-53
2022/06/18 10:35:45;;;;;;;;;11.00;11.00;;;;;35.86;23.62;101058.34;5037905;28;46231;-51
2022/06/18 10:38:24;;;;;;;;;11.25;11.25;;;;;36.11;23.12;101045.41;5022684;28;45481;-52
2022/06/18 10:41:08;;;;;;;;;11.25;9.00;;;;;36.50;22.45;101051.72;5022461;28;45265;-52
2022/06/18 10:43:55;;;;;;;;;11.00;11.00;;;;;36.93;22.92;101053.88;5036992;28;47545;-53
2022/06/18 10:46:22;;;;;;;;;11.25;10.00;;;;;37.52;22.39;101039.31;5037619;28;45504;-51
2022/06/18 10:48:51;;;;;;;;;11.00;11.00;;;;;38.95;22.44;101059.63;5018567;28;45288;-51
2022/06/18 10:51:20;;;;;;;;;11.25;10.25;;;;;41.81;21.07;101050.75;5022559;28;45457;-51
2022/06/18 10:53:50;;;;;;;;;12.00;9.00;;;;;44.78;19.25;101042.22;5022222;28;46405;-51
2022/06/18 10:56:25;;;;;;;;;10.50;10.50;;;;;47.30;17.67;101030.91;5022304;28;45272;-51
2022/06/18 10:58:54;;;;;;;;;9.00;8.25;;;;;49.34;14.88;101033.75;5022361;28;45209;-52
2022/06/18 11:01:46;;;;;;;;;10.25;9.25;;;;;51.33;13.69;101034.81;5020458;28;45432;-53
2022/06/18 11:04:28;;;;;;;;;9.00;9.00;;;;;52.93;12.30;101016.47;5022319;28;45517;-52
2022/06/18 11:06:57;;;;;;;;;9.00;9.00;;;;;54.15;11.62;101020.44;5022053;28;45170;-52
2022/06/18 11:09:43;;;;;;;;;8.25;8.00;;;;;55.71;10.16;101021.50;5022387;28;45351;-54
2022/06/18 11:12:22;;;;;;;;;10.25;8.00;;;;;57.27;8.70;101022.34;5014236;28;45455;-53
2022/06/18 11:14:48;;;;;;;;;9.50;8.00;;;;;58.58;8.88;101017.50;5021981;28;46110;-52
2022/06/18 11:17:20;;;;;;;;;6.00;6.00;;;;;59.69;7.79;101020.06;5021916;28;45169;-53
2022/06/18 11:19:51;;;;;;;;;7.75;6.50;;;;;60.44;6.77;101015.34;5022022;28;45348;-53
2022/06/18 11:22:29;;;;;;;;;9.25;8.25;;;;;61.41;6.09;101003.22;5020630;28;45345;-52
2022/06/18 11:24:59;;;;;;;;;9.50;8.00;;;;;62.31;5.22;100994.19;5022215;28;45393;-53
2022/06/18 11:27:32;;;;;;;;;8.75;7.00;;;;;63.12;6.03;100991.88;5020420;28;45294;-53
2022/06/18 11:29:58;;;;;;;;;6.25;6.25;;;;;63.96;4.91;100995.00;5037302;28;45354;-53
2022/06/18 11:32:34;;;;;;;;;7.75;7.75;;;;;64.27;4.94;100982.47;5020574;28;45383;-55
2022/06/18 11:35:05;;;;;;;;;8.75;8.00;;;;;64.39;4.99;100978.59;5021971;28;45336;-54
2022/06/18 11:37:32;;;;;;;;;10.25;7.75;;;;;64.63;4.63;100979.31;5021608;28;45257;-52
2022/06/18 11:40:06;;;;;;;;;8.00;8.00;;;;;63.51;4.34;100971.84;5022101;28;45423;-54